createdAt,value
2022-08-16T00:00:47.237Z,25.61
2022-08-16T00:01:40.595Z,25.61
2022-08-16T00:02:36.629Z,25.61
2022-08-16T00:03:26.431Z,25.60
2022-08-16T00:04:12.588Z,25.59
2022-08-16T00:05:00.412Z,25.58
2022-08-16T00:05:48.580Z,25.57
2022-08-16T00:09:07.365Z,25.58
2022-08-16T00:09:53.852Z,25.57
2022-08-16T00:10:56.111Z,25.57
2022-08-16T00:11:46.035Z,25.56
2022-08-16T00:12:34.457Z,25.58
2022-08-16T00:13:54.311Z,25.57
2022-08-16T00:14:38.029Z,25.57
2022-08-16T00:15:24.589Z,25.58
2022-08-16T00:17:06.371Z,25.58
2022-08-16T00:17:56.335Z,25.59
2022-08-16T00:18:36.208Z,25.58
2022-08-16T00:19:28.338Z,25.60
2022-08-16T00:20:15.516Z,25.59
2022-08-16T00:21:03.829Z,25.57
2022-08-16T00:21:53.269Z,25.58
2022-08-16T00:22:40.590Z,25.57
2022-08-16T00:23:40.378Z,25.56
2022-08-16T00:24:33.159Z,25.55
2022-08-16T00:25:17.282Z,25.55
2022-08-16T00:26:35.576Z,25.54
2022-08-16T00:27:11.527Z,25.55
2022-08-16T00:28:07.481Z,25.55
2022-08-16T00:29:07.746Z,25.55
2022-08-16T00:30:00.668Z,25.55
2022-08-16T00:30:50.421Z,25.56
2022-08-16T00:31:58.691Z,25.55
2022-08-16T00:32:38.754Z,25.56
2022-08-16T00:33:50.036Z,25.55
2022-08-16T00:34:44.299Z,25.55
2022-08-16T00:35:36.817Z,25.54
2022-08-16T00:36:22.664Z,25.54
2022-08-16T00:37:11.383Z,25.51
2022-08-16T00:37:59.480Z,25.51
2022-08-16T00:38:43.755Z,25.50
2022-08-16T00:39:29.741Z,25.51
2022-08-16T00:40:53.675Z,25.47
2022-08-16T00:41:38.283Z,25.46
2022-08-16T00:42:29.738Z,25.45
2022-08-16T00:43:12.214Z,25.46
2022-08-16T00:44:00.111Z,25.46
2022-08-16T00:44:44.884Z,25.47
2022-08-16T00:45:29.368Z,25.46
2022-08-16T00:46:22.291Z,25.47
2022-08-16T00:47:17.475Z,25.49
2022-08-16T00:48:02.218Z,25.48
2022-08-16T00:49:02.755Z,25.48
2022-08-16T00:49:56.292Z,25.48
2022-08-16T00:50:39.662Z,25.48
2022-08-16T00:51:24.429Z,25.49
2022-08-16T00:52:09.436Z,25.48
2022-08-16T00:53:10.191Z,25.45
2022-08-16T00:53:55.079Z,25.46
2022-08-16T00:54:39.970Z,25.47
2022-08-16T00:55:24.951Z,25.46
2022-08-16T00:56:58.119Z,25.46
2022-08-16T00:57:24.046Z,25.45
2022-08-16T00:58:13.263Z,25.45
2022-08-16T00:58:58.359Z,25.45
2022-08-16T00:59:54.711Z,25.45
2022-08-16T01:00:43.050Z,25.45
2022-08-16T01:01:31.227Z,25.45
2022-08-16T01:02:30.571Z,25.45
2022-08-16T01:03:14.311Z,25.44
2022-08-16T01:03:59.412Z,25.45
2022-08-16T01:04:44.153Z,25.43
2022-08-16T01:05:45.469Z,25.44
2022-08-16T01:06:32.654Z,25.44
2022-08-16T01:07:50.760Z,25.44
2022-08-16T01:08:36.527Z,25.44
2022-08-16T01:09:20.367Z,25.43
2022-08-16T01:10:04.346Z,25.43
2022-08-16T01:10:59.962Z,25.42
2022-08-16T01:11:53.873Z,25.43
2022-08-16T01:12:38.750Z,25.43
2022-08-16T01:13:22.683Z,25.43
2022-08-16T01:14:07.877Z,25.43
2022-08-16T01:14:51.885Z,25.43
2022-08-16T01:15:35.159Z,25.43
2022-08-16T01:16:20.004Z,25.43
2022-08-16T01:17:08.474Z,25.46
2022-08-16T01:17:56.047Z,25.45
2022-08-16T01:18:41.461Z,25.45
2022-08-16T01:19:27.127Z,25.46
2022-08-16T01:20:24.392Z,25.47
2022-08-16T01:21:11.053Z,25.47
2022-08-16T01:21:55.747Z,25.47
2022-08-16T01:22:55.889Z,25.48
2022-08-16T01:23:58.524Z,25.50
2022-08-16T01:24:52.573Z,25.48
2022-08-16T01:25:38.701Z,25.46
2022-08-16T01:26:34.673Z,25.46
2022-08-16T01:27:17.993Z,25.46
2022-08-16T01:28:03.671Z,25.46
2022-08-16T01:28:49.342Z,25.43
2022-08-16T01:29:56.840Z,25.42
2022-08-16T01:30:40.227Z,25.45
2022-08-16T01:31:31.116Z,25.45
2022-08-16T01:32:33.484Z,25.47
2022-08-16T01:33:15.773Z,25.46
2022-08-16T01:33:59.805Z,25.43
2022-08-16T01:34:47.375Z,25.43
2022-08-16T01:35:37.130Z,25.42
2022-08-16T01:36:26.630Z,25.41
2022-08-16T01:37:10.504Z,25.40
2022-08-16T01:37:54.765Z,25.40
2022-08-16T01:38:39.962Z,25.38
2022-08-16T01:39:29.270Z,25.38
2022-08-16T01:40:16.316Z,25.37
2022-08-16T01:41:04.433Z,25.36
2022-08-16T01:41:48.780Z,25.35
2022-08-16T01:42:34.356Z,25.34
2022-08-16T01:43:23.469Z,25.33
2022-08-16T01:44:06.541Z,25.33
2022-08-16T01:44:53.380Z,25.32
2022-08-16T01:45:40.722Z,25.33
2022-08-16T01:46:31.244Z,25.33
2022-08-16T01:47:22.937Z,25.31
2022-08-16T01:48:05.422Z,25.31
2022-08-16T01:49:02.003Z,25.31
2022-08-16T01:50:42.305Z,25.31
2022-08-16T01:51:09.592Z,25.30
2022-08-16T01:51:47.907Z,25.30
2022-08-16T01:52:31.468Z,25.31
2022-08-16T01:53:14.211Z,25.30
2022-08-16T01:53:57.729Z,25.29
2022-08-16T01:54:41.985Z,25.29
2022-08-16T01:55:26.900Z,25.30
2022-08-16T01:56:24.955Z,25.30
2022-08-16T01:57:07.183Z,25.32
2022-08-16T01:57:56.320Z,25.32
2022-08-16T01:58:37.369Z,25.34
2022-08-16T01:59:20.474Z,25.34
2022-08-16T02:00:10.477Z,25.34
2022-08-16T02:01:02.692Z,25.34
2022-08-16T02:01:52.902Z,25.34
2022-08-16T02:02:43.726Z,25.33
2022-08-16T02:03:32.006Z,25.35
2022-08-16T02:04:40.094Z,25.33
2022-08-16T02:05:19.890Z,25.32
2022-08-16T02:06:08.017Z,25.32
2022-08-16T02:06:51.654Z,25.31
2022-08-16T02:07:36.341Z,25.32
2022-08-16T02:08:33.709Z,25.31
2022-08-16T02:09:17.942Z,25.32
2022-08-16T02:10:02.035Z,25.31
2022-08-16T02:10:45.898Z,25.30
2022-08-16T02:11:47.663Z,25.30
2022-08-16T02:12:39.727Z,25.30
2022-08-16T02:13:34.867Z,25.28
2022-08-16T02:14:21.471Z,25.27
2022-08-16T02:15:05.697Z,25.28
2022-08-16T02:15:51.145Z,25.27
2022-08-16T02:16:36.243Z,25.28
2022-08-16T02:17:21.062Z,25.26
2022-08-16T02:18:06.798Z,25.26
2022-08-16T02:18:56.428Z,25.26
2022-08-16T02:19:58.923Z,25.25
2022-08-16T02:20:42.558Z,25.25
2022-08-16T02:21:31.423Z,25.25
2022-08-16T02:22:36.750Z,25.26
2022-08-16T02:23:17.365Z,25.25
2022-08-16T02:24:00.807Z,25.24
2022-08-16T02:24:45.984Z,25.24
2022-08-16T02:25:50.861Z,25.24
2022-08-16T02:26:28.200Z,25.25
2022-08-16T02:27:15.700Z,25.25
2022-08-16T02:28:00.413Z,25.26
2022-08-16T02:28:45.329Z,25.25
2022-08-16T02:29:32.046Z,25.26
2022-08-16T02:30:35.694Z,25.26
2022-08-16T02:31:17.311Z,25.26
2022-08-16T02:32:03.314Z,25.26
2022-08-16T02:33:02.511Z,25.27
2022-08-16T02:33:50.073Z,25.27
2022-08-16T02:34:40.640Z,25.27
2022-08-16T02:35:24.236Z,25.27
2022-08-16T02:36:14.337Z,25.26
2022-08-16T02:37:08.914Z,25.25
2022-08-16T02:37:56.091Z,25.24
2022-08-16T02:38:44.611Z,25.25
2022-08-16T02:39:32.579Z,25.24
2022-08-16T02:40:20.477Z,25.26
2022-08-16T02:41:09.606Z,25.25
2022-08-16T02:41:53.558Z,25.26
2022-08-16T02:42:35.901Z,25.26
2022-08-16T02:43:21.413Z,25.26
2022-08-16T02:44:07.275Z,25.26
2022-08-16T02:44:55.501Z,25.25
2022-08-16T02:45:40.253Z,25.25
2022-08-16T02:46:33.369Z,25.25
2022-08-16T02:47:25.335Z,25.24
2022-08-16T02:48:29.946Z,25.23
2022-08-16T02:49:08.035Z,25.23
2022-08-16T02:49:59.269Z,25.23
2022-08-16T02:51:10.988Z,25.24
2022-08-16T02:51:54.767Z,25.22
2022-08-16T02:52:43.740Z,25.21
2022-08-16T02:53:28.669Z,25.20
2022-08-16T02:54:12.810Z,25.21
2022-08-16T02:54:57.730Z,25.21
2022-08-16T02:55:42.197Z,25.21
2022-08-16T02:56:32.226Z,25.20
2022-08-16T02:57:16.226Z,25.21
2022-08-16T02:58:01.497Z,25.22
2022-08-16T02:58:45.642Z,25.23
2022-08-16T02:59:27.257Z,25.23
2022-08-16T03:00:34.024Z,25.23
2022-08-16T03:01:25.085Z,25.21
2022-08-16T03:02:20.903Z,25.21
2022-08-16T03:03:15.211Z,25.20
2022-08-16T03:04:40.628Z,25.21
2022-08-16T03:05:01.753Z,25.22
2022-08-16T03:05:52.188Z,25.23
2022-08-16T03:06:42.479Z,25.23
2022-08-16T03:07:27.743Z,25.25
2022-08-16T03:08:50.242Z,25.23
2022-08-16T03:09:15.054Z,25.21
2022-08-16T03:10:00.827Z,25.21
2022-08-16T03:10:45.093Z,25.21
2022-08-16T03:11:35.588Z,25.23
2022-08-16T03:12:19.075Z,25.25
2022-08-16T03:13:03.555Z,25.25
2022-08-16T03:13:54.130Z,25.24
2022-08-16T03:14:36.974Z,25.22
2022-08-16T03:15:20.925Z,25.24
2022-08-16T03:16:04.799Z,25.24
2022-08-16T03:16:59.664Z,25.25
2022-08-16T03:17:53.877Z,25.25
2022-08-16T03:18:40.371Z,25.25
2022-08-16T03:19:24.771Z,25.23
2022-08-16T03:20:07.707Z,25.23
2022-08-16T03:20:55.510Z,25.23
2022-08-16T03:21:39.787Z,25.23
2022-08-16T03:22:28.191Z,25.24
2022-08-16T03:23:11.674Z,25.23
2022-08-16T03:23:56.404Z,25.25
2022-08-16T03:24:40.792Z,25.25
2022-08-16T03:25:28.250Z,25.26
2022-08-16T03:26:25.575Z,25.25
2022-08-16T03:27:08.955Z,25.25
2022-08-16T03:27:54.207Z,25.25
2022-08-16T03:28:37.927Z,25.25
2022-08-16T03:29:23.265Z,25.25
2022-08-16T03:30:16.225Z,25.25
2022-08-16T03:30:59.394Z,25.25
2022-08-16T03:31:45.019Z,25.24
2022-08-16T03:32:33.129Z,25.24
2022-08-16T03:33:18.840Z,25.23
2022-08-16T03:34:07.243Z,25.23
2022-08-16T03:34:55.827Z,25.23
2022-08-16T03:35:43.663Z,25.22
2022-08-16T03:36:31.130Z,25.24
2022-08-16T03:37:15.565Z,25.22
2022-08-16T03:38:02.570Z,25.23
2022-08-16T03:38:46.164Z,25.23
2022-08-16T03:39:34.717Z,25.22
2022-08-16T03:40:33.079Z,25.22
2022-08-16T03:41:25.429Z,25.20
2022-08-16T03:42:20.186Z,25.21
2022-08-16T03:43:19.808Z,25.21
2022-08-16T03:44:03.701Z,25.21
2022-08-16T03:44:52.097Z,25.20
2022-08-16T03:45:46.498Z,25.18
2022-08-16T03:46:47.903Z,25.18
2022-08-16T03:47:34.142Z,25.20
2022-08-16T03:48:19.841Z,25.19
2022-08-16T03:49:04.191Z,25.19
2022-08-16T03:49:51.499Z,25.18
2022-08-16T03:50:34.187Z,25.17
2022-08-16T03:51:23.628Z,25.17
2022-08-16T03:52:07.909Z,25.17
2022-08-16T03:52:51.958Z,25.19
2022-08-16T03:53:38.431Z,25.17
2022-08-16T03:54:22.469Z,25.18
2022-08-16T03:55:06.915Z,25.17
2022-08-16T03:55:52.898Z,25.16
2022-08-16T03:56:37.196Z,25.17
2022-08-16T03:57:21.520Z,25.17
2022-08-16T03:58:04.628Z,25.17
2022-08-16T03:58:50.860Z,25.17
2022-08-16T03:59:33.816Z,25.17
2022-08-16T04:00:35.358Z,25.18
2022-08-16T04:01:18.658Z,25.16
2022-08-16T04:02:04.191Z,25.17
2022-08-16T04:02:54.025Z,25.16
2022-08-16T04:03:39.991Z,25.17
2022-08-16T04:04:32.502Z,25.18
2022-08-16T04:05:16.230Z,25.18
2022-08-16T04:06:00.490Z,25.18
2022-08-16T04:06:45.237Z,25.19
2022-08-16T04:07:33.448Z,25.17
2022-08-16T04:08:22.763Z,25.19
2022-08-16T04:09:07.938Z,25.18
2022-08-16T04:09:52.900Z,25.19
2022-08-16T04:10:39.758Z,25.17
2022-08-16T04:11:25.474Z,25.18
2022-08-16T04:12:11.216Z,25.20
2022-08-16T04:13:20.605Z,25.17
2022-08-16T04:14:32.541Z,25.16
2022-08-16T04:15:16.989Z,25.16
2022-08-16T04:15:59.368Z,25.15
2022-08-16T04:16:44.257Z,25.15
2022-08-16T04:17:27.314Z,25.14
2022-08-16T04:18:12.183Z,25.14
2022-08-16T04:19:02.616Z,25.12
2022-08-16T04:19:45.642Z,25.12
2022-08-16T04:20:33.942Z,25.13
2022-08-16T04:21:29.443Z,25.13
2022-08-16T04:22:12.831Z,25.13
2022-08-16T04:22:57.093Z,25.11
2022-08-16T04:23:42.546Z,25.13
2022-08-16T04:24:28.831Z,25.13
2022-08-16T04:25:12.869Z,25.11
2022-08-16T04:25:57.698Z,25.11
2022-08-16T04:26:46.565Z,25.12
2022-08-16T04:27:32.050Z,25.10
2022-08-16T04:28:54.357Z,25.10
2022-08-16T04:29:23.523Z,25.10
2022-08-16T04:30:11.002Z,25.09
2022-08-16T04:30:52.785Z,25.10
2022-08-16T04:31:39.631Z,25.10
2022-08-16T04:32:26.778Z,25.10
2022-08-16T04:33:11.198Z,25.09
2022-08-16T04:33:59.300Z,25.09
2022-08-16T04:34:46.725Z,25.12
2022-08-16T04:35:34.349Z,25.11
2022-08-16T04:36:20.119Z,25.12
2022-08-16T04:37:05.147Z,25.12
2022-08-16T04:37:53.870Z,25.13
2022-08-16T04:38:40.732Z,25.10
2022-08-16T04:39:45.017Z,25.09
2022-08-16T04:40:30.898Z,25.10
2022-08-16T04:41:16.333Z,25.07
2022-08-16T04:42:01.032Z,25.05
2022-08-16T04:42:54.795Z,25.02
2022-08-16T04:43:39.255Z,25.01
2022-08-16T04:44:52.707Z,25.00
2022-08-16T04:45:35.724Z,24.99
2022-08-16T04:47:00.248Z,24.98
2022-08-16T04:47:21.751Z,24.97
2022-08-16T04:48:07.195Z,24.99
2022-08-16T04:48:52.881Z,25.02
2022-08-16T04:49:46.235Z,25.05
2022-08-16T04:50:30.280Z,25.09
2022-08-16T04:51:14.980Z,25.11
2022-08-16T04:51:56.869Z,25.13
2022-08-16T04:52:42.178Z,25.12
2022-08-16T04:53:26.842Z,25.14
2022-08-16T04:54:21.394Z,25.15
2022-08-16T04:55:15.283Z,25.15
2022-08-16T04:56:17.008Z,25.17
2022-08-16T04:57:02.100Z,25.20
2022-08-16T04:57:46.440Z,25.22
2022-08-16T04:58:44.471Z,25.22
2022-08-16T04:59:29.647Z,25.20
2022-08-16T05:00:32.609Z,25.21
2022-08-16T05:01:17.071Z,25.18
2022-08-16T05:02:01.120Z,25.18
2022-08-16T05:02:46.582Z,25.18
2022-08-16T05:03:33.644Z,25.18
2022-08-16T05:04:19.527Z,25.19
2022-08-16T05:05:03.625Z,25.20
2022-08-16T05:05:59.184Z,25.20
2022-08-16T05:06:46.132Z,25.20
2022-08-16T05:07:30.654Z,25.20
2022-08-16T05:08:29.638Z,25.21
2022-08-16T05:09:12.102Z,25.23
2022-08-16T05:09:57.839Z,25.21
2022-08-16T05:10:43.675Z,25.21
2022-08-16T05:11:32.172Z,25.23
2022-08-16T05:12:21.979Z,25.23
2022-08-16T05:13:04.487Z,25.22
2022-08-16T05:13:47.020Z,25.22
2022-08-16T05:14:45.207Z,25.21
2022-08-16T05:15:29.803Z,25.19
2022-08-16T05:16:21.488Z,25.17
2022-08-16T05:17:04.015Z,25.16
2022-08-16T05:17:58.458Z,25.15
2022-08-16T05:18:41.819Z,25.14
2022-08-16T05:19:25.033Z,25.13
2022-08-16T05:20:35.320Z,25.11
2022-08-16T05:21:11.139Z,25.10
2022-08-16T05:21:54.594Z,25.09
2022-08-16T05:22:40.131Z,25.09
2022-08-16T05:23:31.619Z,25.08
2022-08-16T05:24:15.678Z,25.06
2022-08-16T05:25:09.037Z,25.08
2022-08-16T05:25:52.047Z,25.09
2022-08-16T05:26:40.877Z,25.09
2022-08-16T05:27:26.266Z,25.08
2022-08-16T05:28:13.700Z,25.10
2022-08-16T05:29:04.409Z,25.09
2022-08-16T05:29:57.725Z,25.10
2022-08-16T05:30:43.243Z,25.10
2022-08-16T05:31:29.516Z,25.10
2022-08-16T05:32:32.973Z,25.09
2022-08-16T05:33:16.949Z,25.07
2022-08-16T05:34:00.634Z,25.07
2022-08-16T05:34:45.776Z,25.06
2022-08-16T05:35:29.839Z,25.08
2022-08-16T05:36:15.465Z,25.09
2022-08-16T05:37:03.819Z,25.09
2022-08-16T05:37:48.193Z,25.10
2022-08-16T05:38:39.273Z,25.10
2022-08-16T05:39:22.843Z,25.10
2022-08-16T05:40:08.126Z,25.11
2022-08-16T05:40:59.841Z,25.12
2022-08-16T05:41:45.300Z,25.13
2022-08-16T05:42:35.857Z,25.13
2022-08-16T05:43:20.377Z,25.15
2022-08-16T05:44:22.981Z,25.14
2022-08-16T05:45:07.907Z,25.15
2022-08-16T05:45:55.894Z,25.14
2022-08-16T05:46:43.782Z,25.14
2022-08-16T05:47:26.593Z,25.15
2022-08-16T05:48:13.657Z,25.13
2022-08-16T05:49:05.808Z,25.13
2022-08-16T05:49:51.349Z,25.13
2022-08-16T05:50:41.747Z,25.13
2022-08-16T05:51:37.552Z,25.13
2022-08-16T05:52:21.156Z,25.12
2022-08-16T05:53:06.102Z,25.13
2022-08-16T05:53:51.016Z,25.12
2022-08-16T05:54:58.455Z,25.12
2022-08-16T05:55:44.905Z,25.11
2022-08-16T05:56:32.088Z,25.12
2022-08-16T05:57:19.066Z,25.12
2022-08-16T05:58:01.997Z,25.12
2022-08-16T05:58:48.757Z,25.12
2022-08-16T05:59:36.796Z,25.12
2022-08-16T06:00:22.978Z,25.12
2022-08-16T06:01:17.765Z,25.13
2022-08-16T06:02:07.711Z,25.15
2022-08-16T06:02:55.634Z,25.16
2022-08-16T06:03:37.478Z,25.15
2022-08-16T06:04:36.520Z,25.19
2022-08-16T06:05:20.764Z,25.21
2022-08-16T06:06:08.579Z,25.23
2022-08-16T06:06:56.519Z,25.24
2022-08-16T06:07:40.948Z,25.24
2022-08-16T06:08:32.045Z,25.24
2022-08-16T06:09:24.177Z,25.26
2022-08-16T06:10:09.742Z,25.28
2022-08-16T06:11:05.618Z,25.28
2022-08-16T06:11:52.882Z,25.30
2022-08-16T06:12:39.568Z,25.30
2022-08-16T06:13:23.998Z,25.31
2022-08-16T06:14:09.885Z,25.31
2022-08-16T06:14:58.972Z,25.32
2022-08-16T06:15:44.075Z,25.32
2022-08-16T06:16:31.868Z,25.33
2022-08-16T06:17:21.619Z,25.34
2022-08-16T06:18:06.427Z,25.35
2022-08-16T06:18:55.415Z,25.35
2022-08-16T06:19:44.640Z,25.36
2022-08-16T06:20:35.396Z,25.36
2022-08-16T06:21:22.738Z,25.36
2022-08-16T06:22:06.083Z,25.38
2022-08-16T06:22:58.795Z,25.38
2022-08-16T06:23:46.895Z,25.38
2022-08-16T06:24:54.746Z,25.39
2022-08-16T06:25:36.335Z,25.39
2022-08-16T06:26:19.204Z,25.38
2022-08-16T06:27:02.592Z,25.39
2022-08-16T06:27:57.174Z,25.40
2022-08-16T06:28:41.498Z,25.39
2022-08-16T06:29:28.390Z,25.40
2022-08-16T06:30:13.605Z,25.40
2022-08-16T06:31:01.888Z,25.41
2022-08-16T06:31:49.155Z,25.42
2022-08-16T06:32:37.615Z,25.41
2022-08-16T06:33:26.604Z,25.42
2022-08-16T06:34:54.865Z,25.41
2022-08-16T06:35:17.208Z,25.38
2022-08-16T06:36:10.639Z,25.40
2022-08-16T06:36:59.339Z,25.41
2022-08-16T06:37:47.018Z,25.39
2022-08-16T06:38:34.612Z,25.39
2022-08-16T06:39:19.301Z,25.41
2022-08-16T06:40:12.968Z,25.41
2022-08-16T06:40:59.100Z,25.39
2022-08-16T06:41:42.748Z,25.39
2022-08-16T06:43:09.956Z,25.41
2022-08-16T06:44:00.881Z,25.41
2022-08-16T06:44:50.825Z,25.42
2022-08-16T06:45:43.251Z,25.42
2022-08-16T06:46:24.693Z,25.42
2022-08-16T06:47:16.833Z,25.43
2022-08-16T06:48:04.548Z,25.42
2022-08-16T06:49:01.891Z,25.43
2022-08-16T06:49:52.634Z,25.42
2022-08-16T06:50:38.385Z,25.42
2022-08-16T06:51:24.263Z,25.42
2022-08-16T06:53:00.759Z,25.44
2022-08-16T06:53:28.012Z,25.43
2022-08-16T06:54:15.824Z,25.43
2022-08-16T06:55:05.614Z,25.45
2022-08-16T06:55:53.707Z,25.44
2022-08-16T06:56:41.601Z,25.45
2022-08-16T06:57:27.874Z,25.44
2022-08-16T06:58:22.109Z,25.43
2022-08-16T06:59:08.927Z,25.44
2022-08-16T06:59:58.315Z,25.44
2022-08-16T07:00:47.419Z,25.43
2022-08-16T07:01:45.165Z,25.43
2022-08-16T07:02:33.983Z,25.44
2022-08-16T07:03:26.910Z,25.44
2022-08-16T07:04:13.897Z,25.45
2022-08-16T07:05:19.903Z,25.45
2022-08-16T07:06:12.551Z,25.45
2022-08-16T07:07:00.442Z,25.45
2022-08-16T07:07:45.308Z,25.45
2022-08-16T07:08:35.116Z,25.45
2022-08-16T07:09:23.279Z,25.46
2022-08-16T07:10:15.775Z,25.45
2022-08-16T07:11:11.521Z,25.46
2022-08-16T07:12:03.367Z,25.45
2022-08-16T07:13:03.394Z,25.45
2022-08-16T07:14:00.488Z,25.46
2022-08-16T07:14:57.336Z,25.46
2022-08-16T07:15:50.588Z,25.46
2022-08-16T07:16:32.529Z,25.45
2022-08-16T07:17:20.489Z,25.46
2022-08-16T07:18:18.126Z,25.47
2022-08-16T07:19:07.688Z,25.46
2022-08-16T07:20:30.227Z,25.46
2022-08-16T07:21:01.785Z,25.47
2022-08-16T07:21:46.646Z,25.46
2022-08-16T07:22:43.896Z,25.47
2022-08-16T07:23:39.253Z,25.47
2022-08-16T07:24:29.882Z,25.46
2022-08-16T07:25:16.825Z,25.46
2022-08-16T07:26:04.215Z,25.47
2022-08-16T07:26:48.758Z,25.46
2022-08-16T07:27:37.230Z,25.46
2022-08-16T07:28:24.381Z,25.47
2022-08-16T07:29:11.887Z,25.46
2022-08-16T07:30:01.319Z,25.46
2022-08-16T07:30:51.244Z,25.46
2022-08-16T07:31:41.484Z,25.46
2022-08-16T07:32:29.148Z,25.46
2022-08-16T07:33:16.046Z,25.45
2022-08-16T07:34:00.707Z,25.45
2022-08-16T07:34:48.432Z,25.45
2022-08-16T07:35:33.760Z,25.44
2022-08-16T07:36:23.074Z,25.44
2022-08-16T07:37:14.231Z,25.45
2022-08-16T07:37:59.497Z,25.45
2022-08-16T07:38:45.499Z,25.45
2022-08-16T07:39:33.973Z,25.46
2022-08-16T07:40:32.167Z,25.47
2022-08-16T07:41:24.144Z,25.47
2022-08-16T07:42:25.919Z,25.46
2022-08-16T07:43:11.308Z,25.46
2022-08-16T07:43:57.628Z,25.47
2022-08-16T07:44:50.652Z,25.46
2022-08-16T07:45:35.368Z,25.47
2022-08-16T07:46:38.687Z,25.47
2022-08-16T07:47:31.613Z,25.48
2022-08-16T07:48:13.487Z,25.47
2022-08-16T07:49:02.607Z,25.48
2022-08-16T07:49:57.965Z,25.47
2022-08-16T07:50:56.076Z,25.48
2022-08-16T07:51:42.250Z,25.47
2022-08-16T07:52:31.295Z,25.48
2022-08-16T07:53:20.148Z,25.48
2022-08-16T07:54:09.500Z,25.48
2022-08-16T07:54:56.072Z,25.47
2022-08-16T07:55:45.620Z,25.48
2022-08-16T07:56:33.844Z,25.48
2022-08-16T07:57:19.057Z,25.49
2022-08-16T07:58:04.348Z,25.48
2022-08-16T07:58:55.555Z,25.48
2022-08-16T07:59:42.884Z,25.48
2022-08-16T08:00:25.250Z,25.49
2022-08-16T08:01:00.330Z,25.48
2022-08-16T08:01:36.626Z,25.47
2022-08-16T08:02:13.951Z,25.48
2022-08-16T08:02:57.050Z,25.48
2022-08-16T08:03:36.092Z,25.48
2022-08-16T08:04:14.348Z,25.49
2022-08-16T08:04:50.537Z,25.49
2022-08-16T08:05:35.381Z,25.49
2022-08-16T08:06:12.231Z,25.49
2022-08-16T08:06:51.135Z,25.49
2022-08-16T08:07:27.611Z,25.47
2022-08-16T08:08:11.938Z,25.47
2022-08-16T08:08:59.992Z,25.47
2022-08-16T08:09:36.438Z,25.47
2022-08-16T08:10:29.425Z,25.47
2022-08-16T08:11:09.283Z,25.48
2022-08-16T08:12:00.647Z,25.48
2022-08-16T08:12:36.807Z,25.48
2022-08-16T08:13:13.711Z,25.48
2022-08-16T08:13:50.697Z,25.49
2022-08-16T08:14:29.862Z,25.50
2022-08-16T08:15:05.572Z,25.48
2022-08-16T08:15:52.503Z,25.48
2022-08-16T08:16:30.755Z,25.49
2022-08-16T08:17:06.344Z,25.49
2022-08-16T08:17:44.421Z,25.49
2022-08-16T08:18:29.859Z,25.49
2022-08-16T08:19:06.580Z,25.49
2022-08-16T08:19:45.709Z,25.49
2022-08-16T08:20:28.941Z,25.49
2022-08-16T08:21:05.192Z,25.50
2022-08-16T08:21:59.393Z,25.49
2022-08-16T08:22:37.555Z,25.50
2022-08-16T08:23:13.421Z,25.49
2022-08-16T08:23:50.272Z,25.50
2022-08-16T08:24:32.141Z,25.49
2022-08-16T08:25:07.977Z,25.49
2022-08-16T08:25:53.655Z,25.49
2022-08-16T08:26:30.623Z,25.49
2022-08-16T08:27:07.720Z,25.49
2022-08-16T08:27:44.260Z,25.49
2022-08-16T08:28:20.368Z,25.50
2022-08-16T08:29:01.060Z,25.49
2022-08-16T08:29:40.176Z,25.50
2022-08-16T08:30:51.909Z,25.49
2022-08-16T08:31:12.058Z,25.49
2022-08-16T08:31:53.065Z,25.49
2022-08-16T08:33:00.572Z,25.50
2022-08-16T08:33:24.540Z,25.49
2022-08-16T08:34:04.915Z,25.50
2022-08-16T08:34:40.557Z,25.51
2022-08-16T08:35:26.865Z,25.50
2022-08-16T08:36:02.974Z,25.50
2022-08-16T08:36:40.765Z,25.50
2022-08-16T08:37:19.283Z,25.51
2022-08-16T08:37:56.505Z,25.50
2022-08-16T08:38:45.826Z,25.49
2022-08-16T08:39:21.897Z,25.50
2022-08-16T08:39:58.709Z,25.49
2022-08-16T08:40:35.308Z,25.50
2022-08-16T08:41:11.821Z,25.51
2022-08-16T08:41:49.471Z,25.51
2022-08-16T08:42:26.635Z,25.51
2022-08-16T08:43:11.777Z,25.50
2022-08-16T08:43:50.426Z,25.51
2022-08-16T08:44:28.815Z,25.51
2022-08-16T08:45:06.423Z,25.50
2022-08-16T08:45:48.773Z,25.51
2022-08-16T08:46:25.209Z,25.51
2022-08-16T08:47:02.730Z,25.51
2022-08-16T08:47:39.481Z,25.51
2022-08-16T08:48:33.270Z,25.51
2022-08-16T08:49:09.722Z,25.51
2022-08-16T08:49:55.026Z,25.50
2022-08-16T08:50:31.588Z,25.51
2022-08-16T08:51:09.084Z,25.50
2022-08-16T08:51:45.341Z,25.51
2022-08-16T08:52:34.297Z,25.51
2022-08-16T08:53:11.024Z,25.51
2022-08-16T08:53:57.714Z,25.51
2022-08-16T08:54:34.259Z,25.52
2022-08-16T08:55:11.451Z,25.51
2022-08-16T08:55:48.515Z,25.51
2022-08-16T08:56:35.323Z,25.52
2022-08-16T08:57:12.200Z,25.51
2022-08-16T08:57:48.966Z,25.51
2022-08-16T08:58:24.712Z,25.51
2022-08-16T08:59:13.476Z,25.52
2022-08-16T08:59:55.958Z,25.52
2022-08-16T09:00:32.162Z,25.52
2022-08-16T09:01:31.833Z,25.52
2022-08-16T09:02:12.437Z,25.52
2022-08-16T09:02:52.017Z,25.52
2022-08-16T09:03:27.973Z,25.52
2022-08-16T09:04:02.985Z,25.52
2022-08-16T09:04:40.467Z,25.52
2022-08-16T09:05:17.385Z,25.51
2022-08-16T09:05:53.835Z,25.52
2022-08-16T09:06:30.792Z,25.52
2022-08-16T09:07:06.904Z,25.52
2022-08-16T09:08:01.376Z,25.52
2022-08-16T09:08:37.556Z,25.53
2022-08-16T09:09:16.992Z,25.52
2022-08-16T09:10:06.279Z,25.52
2022-08-16T09:10:42.559Z,25.52
2022-08-16T09:11:18.682Z,25.52
2022-08-16T09:12:06.242Z,25.52
2022-08-16T09:12:42.397Z,25.52
2022-08-16T09:13:22.266Z,25.52
2022-08-16T09:13:58.763Z,25.52
2022-08-16T09:14:35.202Z,25.52
2022-08-16T09:15:13.579Z,25.52
2022-08-16T09:15:50.426Z,25.53
2022-08-16T09:17:01.680Z,25.52
2022-08-16T09:17:48.856Z,25.53
2022-08-16T09:18:25.129Z,25.52
2022-08-16T09:19:03.919Z,25.53
2022-08-16T09:19:40.910Z,25.53
2022-08-16T09:20:17.614Z,25.53
2022-08-16T09:20:59.034Z,25.53
2022-08-16T09:21:36.145Z,25.54
2022-08-16T09:22:20.868Z,25.53
2022-08-16T09:22:57.196Z,25.52
2022-08-16T09:23:36.221Z,25.53
2022-08-16T09:24:12.079Z,25.53
2022-08-16T09:25:11.099Z,25.53
2022-08-16T09:25:48.178Z,25.53
2022-08-16T09:26:44.574Z,25.54
2022-08-16T09:27:20.168Z,25.53
2022-08-16T09:28:02.843Z,25.54
2022-08-16T09:29:14.792Z,25.53
2022-08-16T09:29:45.457Z,25.54
2022-08-16T09:30:33.444Z,25.54
2022-08-16T09:31:11.825Z,25.53
2022-08-16T09:31:53.709Z,25.52
2022-08-16T09:32:30.481Z,25.53
2022-08-16T09:33:07.442Z,25.53
2022-08-16T09:33:44.603Z,25.53
2022-08-16T09:34:27.988Z,25.53
2022-08-16T09:35:04.517Z,25.53
2022-08-16T09:35:42.834Z,25.54
2022-08-16T09:36:32.304Z,25.54
2022-08-16T09:37:17.572Z,25.53
2022-08-16T09:38:00.650Z,25.54
2022-08-16T09:38:36.656Z,25.53
2022-08-16T09:39:16.660Z,25.53
2022-08-16T09:39:53.163Z,25.54
2022-08-16T09:40:32.222Z,25.53
2022-08-16T09:41:15.387Z,25.54
2022-08-16T09:41:53.920Z,25.54
2022-08-16T09:42:30.021Z,25.54
2022-08-16T09:43:06.503Z,25.53
2022-08-16T09:43:58.446Z,25.54
2022-08-16T09:45:10.747Z,25.54
2022-08-16T09:45:31.368Z,25.54
2022-08-16T09:46:45.969Z,25.54
2022-08-16T09:47:02.015Z,25.54
2022-08-16T09:47:56.652Z,25.54
2022-08-16T09:48:44.100Z,25.54
2022-08-16T09:49:20.303Z,25.54
2022-08-16T09:49:56.933Z,25.54
2022-08-16T09:50:39.012Z,25.55
2022-08-16T09:51:15.040Z,25.54
2022-08-16T09:51:51.955Z,25.55
2022-08-16T09:52:28.959Z,25.55
2022-08-16T09:53:05.848Z,25.55
2022-08-16T09:53:43.252Z,25.54
2022-08-16T09:54:21.004Z,25.55
2022-08-16T09:54:57.142Z,25.54
2022-08-16T09:55:34.210Z,25.54
2022-08-16T09:56:19.378Z,25.55
2022-08-16T09:56:55.468Z,25.54
2022-08-16T09:57:34.459Z,25.55
2022-08-16T09:58:10.654Z,25.55
2022-08-16T09:59:03.236Z,25.55
2022-08-16T09:59:41.958Z,25.55
2022-08-16T10:00:42.266Z,25.55
2022-08-16T10:01:13.460Z,25.56
2022-08-16T10:01:50.486Z,25.56
2022-08-16T10:02:27.970Z,25.56
2022-08-16T10:03:04.075Z,25.55
2022-08-16T10:04:01.924Z,25.57
2022-08-16T10:04:53.246Z,25.57
2022-08-16T10:05:31.181Z,25.56
2022-08-16T10:06:11.235Z,25.57
2022-08-16T10:06:47.614Z,25.56
2022-08-16T10:07:24.690Z,25.57
2022-08-16T10:08:00.553Z,25.57
2022-08-16T10:09:05.982Z,25.57
2022-08-16T10:09:45.229Z,25.57
2022-08-16T10:10:31.386Z,25.58